sensor_id;sensor_type;location;lat;lon;timestamp;pressure;altitude;pressure_sealevel;temperature;humidity
11936;BME280;6027;48.576;9.180;2023-03-21T00:01:56;97080.09;;;9.22;93.93
11936;BME280;6027;48.576;9.180;2023-03-21T00:04:23;97092.78;;;9.26;93.73
11936;BME280;6027;48.576;9.180;2023-03-21T00:06:49;97085.53;;;9.20;93.89
11936;BME280;6027;48.576;9.180;2023-03-21T00:09:15;97085.72;;;9.19;94.23
11936;BME280;6027;48.576;9.180;2023-03-21T00:11:41;97080.91;;;9.22;94.29
11936;BME280;6027;48.576;9.180;2023-03-21T00:14:06;97082.03;;;9.28;93.49
11936;BME280;6027;48.576;9.180;2023-03-21T00:16:33;97079.09;;;9.23;93.34
11936;BME280;6027;48.576;9.180;2023-03-21T00:19:00;97076.47;;;9.23;93.44
11936;BME280;6027;48.576;9.180;2023-03-21T00:21:27;97075.94;;;9.27;93.04
11936;BME280;6027;48.576;9.180;2023-03-21T00:23:57;97072.94;;;9.30;93.16
11936;BME280;6027;48.576;9.180;2023-03-21T00:26:23;97070.31;;;9.30;93.58
11936;BME280;6027;48.576;9.180;2023-03-21T00:28:49;97070.47;;;9.29;93.70
11936;BME280;6027;48.576;9.180;2023-03-21T00:31:15;97067.00;;;9.28;94.19
11936;BME280;6027;48.576;9.180;2023-03-21T00:33:41;97065.34;;;9.27;93.96
11936;BME280;6027;48.576;9.180;2023-03-21T00:36:08;97062.56;;;9.29;93.76
11936;BME280;6027;48.576;9.180;2023-03-21T00:38:35;97063.72;;;9.26;93.87
11936;BME280;6027;48.576;9.180;2023-03-21T00:41:10;97055.31;;;9.23;93.79
11936;BME280;6027;48.576;9.180;2023-03-21T00:43:36;97049.53;;;9.19;93.44
11936;BME280;6027;48.576;9.180;2023-03-21T00:46:02;97049.06;;;9.08;93.85
11936;BME280;6027;48.576;9.180;2023-03-21T00:48:28;97047.75;;;9.12;94.09
11936;BME280;6027;48.576;9.180;2023-03-21T00:50:55;97046.09;;;9.11;94.54
11936;BME280;6027;48.576;9.180;2023-03-21T00:55:49;97045.25;;;9.10;95.21
11936;BME280;6027;48.576;9.180;2023-03-21T00:58:15;97040.31;;;9.07;95.18
11936;BME280;6027;48.576;9.180;2023-03-21T01:00:41;97041.78;;;9.10;95.79
11936;BME280;6027;48.576;9.180;2023-03-21T01:03:10;97040.47;;;9.14;95.65
11936;BME280;6027;48.576;9.180;2023-03-21T01:05:44;97039.47;;;9.15;96.06
11936;BME280;6027;48.576;9.180;2023-03-21T01:08:29;97033.88;;;9.10;97.05
11936;BME280;6027;48.576;9.180;2023-03-21T01:10:55;97037.84;;;9.06;98.37
11936;BME280;6027;48.576;9.180;2023-03-21T01:13:23;97033.41;;;8.98;99.31
11936;BME280;6027;48.576;9.180;2023-03-21T01:15:51;97033.09;;;8.93;99.38
11936;BME280;6027;48.576;9.180;2023-03-21T01:18:19;97040.34;;;8.91;99.90
11936;BME280;6027;48.576;9.180;2023-03-21T01:20:46;97039.19;;;8.93;98.86
11936;BME280;6027;48.576;9.180;2023-03-21T01:23:13;97035.22;;;8.97;98.46
11936;BME280;6027;48.576;9.180;2023-03-21T01:25:39;97036.06;;;8.98;98.63
11936;BME280;6027;48.576;9.180;2023-03-21T01:28:06;97033.25;;;8.99;97.93
11936;BME280;6027;48.576;9.180;2023-03-21T01:30:32;97031.59;;;8.90;98.23
11936;BME280;6027;48.576;9.180;2023-03-21T01:32:57;97030.94;;;8.96;98.65
11936;BME280;6027;48.576;9.180;2023-03-21T01:35:23;97021.38;;;8.95;97.95
11936;BME280;6027;48.576;9.180;2023-03-21T01:37:49;97027.16;;;8.99;97.71
11936;BME280;6027;48.576;9.180;2023-03-21T01:40:25;97029.13;;;8.97;98.28
11936;BME280;6027;48.576;9.180;2023-03-21T01:42:51;97025.66;;;8.96;98.74
11936;BME280;6027;48.576;9.180;2023-03-21T01:48:20;97029.47;;;8.94;98.36
11936;BME280;6027;48.576;9.180;2023-03-21T01:50:48;97025.00;;;8.94;98.47
11936;BME280;6027;48.576;9.180;2023-03-21T01:53:14;97016.41;;;8.92;98.30
11936;BME280;6027;48.576;9.180;2023-03-21T01:55:40;97020.72;;;8.93;98.06
11936;BME280;6027;48.576;9.180;2023-03-21T01:58:07;97018.06;;;8.93;98.55
11936;BME280;6027;48.576;9.180;2023-03-21T02:00:35;97016.91;;;8.88;98.73
11936;BME280;6027;48.576;9.180;2023-03-21T02:03:05;97016.63;;;8.83;100.00
11936;BME280;6027;48.576;9.180;2023-03-21T02:08:04;97011.34;;;8.83;100.00
11936;BME280;6027;48.576;9.180;2023-03-21T02:10:31;97005.91;;;8.84;100.00
11936;BME280;6027;48.576;9.180;2023-03-21T02:12:59;97002.75;;;8.81;100.00
11936;BME280;6027;48.576;9.180;2023-03-21T02:15:33;97002.25;;;8.77;100.00
11936;BME280;6027;48.576;9.180;2023-03-21T02:18:08;97000.66;;;8.60;100.00
11936;BME280;6027;48.576;9.180;2023-03-21T02:26:58;96996.84;;;8.62;100.00
11936;BME280;6027;48.576;9.180;2023-03-21T02:41:17;96987.09;;;8.71;100.00
11936;BME280;6027;48.576;9.180;2023-03-21T02:43:45;96992.03;;;8.66;100.00
11936;BME280;6027;48.576;9.180;2023-03-21T02:46:18;96994.34;;;8.69;100.00
11936;BME280;6027;48.576;9.180;2023-03-21T02:48:55;96982.97;;;8.69;100.00
11936;BME280;6027;48.576;9.180;2023-03-21T02:51:22;96989.56;;;8.73;100.00
11936;BME280;6027;48.576;9.180;2023-03-21T02:54:00;96986.44;;;8.69;100.00
11936;BME280;6027;48.576;9.180;2023-03-21T02:56:26;96983.13;;;8.75;100.00
11936;BME280;6027;48.576;9.180;2023-03-21T02:58:52;96980.16;;;8.70;100.00
11936;BME280;6027;48.576;9.180;2023-03-21T03:01:18;96989.22;;;8.68;100.00
11936;BME280;6027;48.576;9.180;2023-03-21T03:03:43;96984.13;;;8.74;100.00
11936;BME280;6027;48.576;9.180;2023-03-21T03:06:21;96984.63;;;8.70;100.00
11936;BME280;6027;48.576;9.180;2023-03-21T03:09:16;96990.72;;;8.70;100.00
11936;BME280;6027;48.576;9.180;2023-03-21T03:11:56;96988.09;;;8.62;100.00
11936;BME280;6027;48.576;9.180;2023-03-21T03:14:44;96981.66;;;8.56;100.00
11936;BME280;6027;48.576;9.180;2023-03-21T03:17:16;96988.09;;;8.62;100.00
11936;BME280;6027;48.576;9.180;2023-03-21T03:25:59;96985.97;;;8.65;100.00
11936;BME280;6027;48.576;9.180;2023-03-21T03:28:32;96983.66;;;8.62;100.00
11936;BME280;6027;48.576;9.180;2023-03-21T03:31:00;96985.97;;;8.57;100.00
11936;BME280;6027;48.576;9.180;2023-03-21T03:33:26;96990.09;;;8.60;100.00
11936;BME280;6027;48.576;9.180;2023-03-21T03:35:54;96974.59;;;8.57;100.00
11936;BME280;6027;48.576;9.180;2023-03-21T03:38:21;96979.53;;;8.60;100.00
11936;BME280;6027;48.576;9.180;2023-03-21T03:40:57;96977.22;;;8.57;100.00
11936;BME280;6027;48.576;9.180;2023-03-21T03:43:40;96977.22;;;8.65;100.00
11936;BME280;6027;48.576;9.180;2023-03-21T03:46:17;96976.41;;;8.64;100.00
11936;BME280;6027;48.576;9.180;2023-03-21T03:48:48;96977.72;;;8.60;100.00
11936;BME280;6027;48.576;9.180;2023-03-21T03:51:19;96959.91;;;8.54;100.00
11936;BME280;6027;48.576;9.180;2023-03-21T03:54:02;96968.97;;;8.52;100.00
11936;BME280;6027;48.576;9.180;2023-03-21T03:56:29;96968.00;;;8.37;100.00
11936;BME280;6027;48.576;9.180;2023-03-21T03:58:55;96961.38;;;8.49;100.00
11936;BME280;6027;48.576;9.180;2023-03-21T04:01:21;96961.91;;;8.44;100.00
11936;BME280;6027;48.576;9.180;2023-03-21T04:03:47;96963.38;;;8.39;100.00
11936;BME280;6027;48.576;9.180;2023-03-21T04:06:13;96956.13;;;8.41;100.00
11936;BME280;6027;48.576;9.180;2023-03-21T04:08:39;96955.47;;;8.39;100.00
11936;BME280;6027;48.576;9.180;2023-03-21T04:11:05;96960.41;;;8.34;100.00
11936;BME280;6027;48.576;9.180;2023-03-21T04:13:32;96954.31;;;8.25;100.00
11936;BME280;6027;48.576;9.180;2023-03-21T04:15:57;96953.31;;;8.18;100.00
11936;BME280;6027;48.576;9.180;2023-03-21T04:18:23;96951.47;;;8.10;100.00
11936;BME280;6027;48.576;9.180;2023-03-21T04:20:48;96951.00;;;8.15;100.00
11936;BME280;6027;48.576;9.180;2023-03-21T04:23:16;96956.75;;;7.94;100.00
11936;BME280;6027;48.576;9.180;2023-03-21T04:25:44;96952.47;;;7.85;100.00
11936;BME280;6027;48.576;9.180;2023-03-21T04:28:10;96948.50;;;7.81;100.00
11936;BME280;6027;48.576;9.180;2023-03-21T04:30:35;96953.16;;;7.87;100.00
11936;BME280;6027;48.576;9.180;2023-03-21T04:35:28;96957.75;;;7.93;100.00
11936;BME280;6027;48.576;9.180;2023-03-21T04:37:54;96953.28;;;7.93;100.00
11936;BME280;6027;48.576;9.180;2023-03-21T04:40:20;96950.00;;;8.00;100.00
11936;BME280;6027;48.576;9.180;2023-03-21T04:42:47;96953.78;;;7.97;100.00
11936;BME280;6027;48.576;9.180;2023-03-21T04:45:14;96957.25;;;7.97;100.00
11936;BME280;6027;48.576;9.180;2023-03-21T04:47:40;96955.78;;;7.95;100.00
11936;BME280;6027;48.576;9.180;2023-03-21T04:50:07;96948.69;;;7.95;100.00
11936;BME280;6027;48.576;9.180;2023-03-21T04:52:33;96959.03;;;7.89;100.00
11936;BME280;6027;48.576;9.180;2023-03-21T04:54:58;96956.75;;;7.94;100.00
11936;BME280;6027;48.576;9.180;2023-03-21T04:57:23;96963.03;;;7.85;100.00
11936;BME280;6027;48.576;9.180;2023-03-21T04:59:49;96953.78;;;7.89;100.00
11936;BME280;6027;48.576;9.180;2023-03-21T05:02:15;96953.78;;;7.81;100.00
11936;BME280;6027;48.576;9.180;2023-03-21T05:04:40;96959.38;;;7.70;100.00
11936;BME280;6027;48.576;9.180;2023-03-21T05:07:06;96949.81;;;7.69;100.00
11936;BME280;6027;48.576;9.180;2023-03-21T05:09:31;96958.38;;;7.62;100.00
11936;BME280;6027;48.576;9.180;2023-03-21T05:11:57;96959.50;;;7.60;100.00
11936;BME280;6027;48.576;9.180;2023-03-21T05:14:24;96952.44;;;7.60;100.00
11936;BME280;6027;48.576;9.180;2023-03-21T05:16:50;96942.69;;;7.53;100.00
11936;BME280;6027;48.576;9.180;2023-03-21T05:19:30;96954.09;;;7.61;100.00
11936;BME280;6027;48.576;9.180;2023-03-21T05:22:07;96963.28;;;7.49;100.00
11936;BME280;6027;48.576;9.180;2023-03-21T05:24:34;96957.66;;;7.52;100.00
11936;BME280;6027;48.576;9.180;2023-03-21T05:27:01;96955.91;;;7.61;100.00
11936;BME280;6027;48.576;9.180;2023-03-21T05:29:31;96966.75;;;7.58;100.00
11936;BME280;6027;48.576;9.180;2023-03-21T05:31:58;96965.56;;;7.52;100.00
11936;BME280;6027;48.576;9.180;2023-03-21T05:34:24;96966.34;;;7.37;100.00
11936;BME280;6027;48.576;9.180;2023-03-21T05:36:59;96971.16;;;7.41;100.00
11936;BME280;6027;48.576;9.180;2023-03-21T05:39:24;96969.19;;;7.43;100.00
11936;BME280;6027;48.576;9.180;2023-03-21T05:41:50;96972.50;;;7.53;100.00
11936;BME280;6027;48.576;9.180;2023-03-21T05:44:15;96968.56;;;7.57;100.00
11936;BME280;6027;48.576;9.180;2023-03-21T05:46:41;96967.88;;;7.55;100.00
11936;BME280;6027;48.576;9.180;2023-03-21T05:49:09;96966.75;;;7.58;100.00
11936;BME280;6027;48.576;9.180;2023-03-21T05:51:35;96967.88;;;7.55;100.00
11936;BME280;6027;48.576;9.180;2023-03-21T05:54:01;96969.53;;;7.56;100.00
11936;BME280;6027;48.576;9.180;2023-03-21T05:56:27;96976.31;;;7.59;100.00
11936;BME280;6027;48.576;9.180;2023-03-21T05:58:52;96970.88;;;7.60;100.00
11936;BME280;6027;48.576;9.180;2023-03-21T06:01:17;96975.00;;;7.63;100.00
11936;BME280;6027;48.576;9.180;2023-03-21T06:03:43;96976.66;;;7.64;100.00
11936;BME280;6027;48.576;9.180;2023-03-21T06:06:09;96970.25;;;7.67;100.00
11936;BME280;6027;48.576;9.180;2023-03-21T06:08:34;96970.25;;;7.67;100.00
11936;BME280;6027;48.576;9.180;2023-03-21T06:11:00;96969.91;;;7.70;100.00
11936;BME280;6027;48.576;9.180;2023-03-21T06:13:25;96965.63;;;7.69;100.00
11936;BME280;6027;48.576;9.180;2023-03-21T06:15:51;96965.28;;;7.72;100.00
11936;BME280;6027;48.576;9.180;2023-03-21T06:18:16;96967.09;;;7.71;100.00
11936;BME280;6027;48.576;9.180;2023-03-21T06:20:42;96971.06;;;7.67;100.00
11936;BME280;6027;48.576;9.180;2023-03-21T06:23:07;96969.72;;;7.63;100.00
11936;BME280;6027;48.576;9.180;2023-03-21T06:25:33;96973.19;;;7.72;100.00
11936;BME280;6027;48.576;9.180;2023-03-21T06:27:58;96972.84;;;7.58;100.00
11936;BME280;6027;48.576;9.180;2023-03-21T06:30:23;96967.38;;;7.52;100.00
11936;BME280;6027;48.576;9.180;2023-03-21T06:32:49;96970.84;;;7.52;100.00
11936;BME280;6027;48.576;9.180;2023-03-21T06:35:15;96962.78;;;7.54;100.00
11936;BME280;6027;48.576;9.180;2023-03-21T06:37:40;96958.38;;;7.62;100.00
11936;BME280;6027;48.576;9.180;2023-03-21T06:40:07;96961.00;;;7.62;100.00
11936;BME280;6027;48.576;9.180;2023-03-21T06:42:33;96967.75;;;7.65;100.00
11936;BME280;6027;48.576;9.180;2023-03-21T06:44:59;96962.94;;;7.44;100.00
11936;BME280;6027;48.576;9.180;2023-03-21T06:47:25;96964.72;;;7.36;100.00
11936;BME280;6027;48.576;9.180;2023-03-21T06:49:50;96963.28;;;7.49;100.00
11936;BME280;6027;48.576;9.180;2023-03-21T06:52:16;96962.97;;;7.60;100.00
11936;BME280;6027;48.576;9.180;2023-03-21T06:54:41;96957.19;;;7.49;100.00
11936;BME280;6027;48.576;9.180;2023-03-21T06:57:07;96968.25;;;7.60;100.00
11936;BME280;6027;48.576;9.180;2023-03-21T06:59:32;96955.06;;;7.60;100.00
11936;BME280;6027;48.576;9.180;2023-03-21T07:01:58;96954.56;;;7.57;100.00
11936;BME280;6027;48.576;9.180;2023-03-21T07:04:23;96959.38;;;7.78;100.00
11936;BME280;6027;48.576;9.180;2023-03-21T07:06:48;96958.56;;;7.69;100.00
11936;BME280;6027;48.576;9.180;2023-03-21T07:09:14;96966.63;;;7.76;100.00
11936;BME280;6027;48.576;9.180;2023-03-21T07:11:41;96962.00;;;7.78;100.00
11936;BME280;6027;48.576;9.180;2023-03-21T07:14:07;96967.13;;;7.79;100.00
11936;BME280;6027;48.576;9.180;2023-03-21T07:16:32;96964.00;;;7.84;100.00
11936;BME280;6027;48.576;9.180;2023-03-21T07:18:58;96961.06;;;7.87;100.00
11936;BME280;6027;48.576;9.180;2023-03-21T07:21:23;96964.00;;;7.84;100.00
11936;BME280;6027;48.576;9.180;2023-03-21T07:23:48;96966.63;;;7.84;100.00
11936;BME280;6027;48.576;9.180;2023-03-21T07:26:15;96964.31;;;7.89;100.00
11936;BME280;6027;48.576;9.180;2023-03-21T07:28:42;96959.22;;;7.95;100.00
11936;BME280;6027;48.576;9.180;2023-03-21T07:31:12;96958.75;;;8.00;100.00
11936;BME280;6027;48.576;9.180;2023-03-21T07:33:38;96965.50;;;8.03;100.00
11936;BME280;6027;48.576;9.180;2023-03-21T07:36:09;96969.47;;;8.07;100.00
11936;BME280;6027;48.576;9.180;2023-03-21T07:38:36;96965.66;;;8.17;100.00
11936;BME280;6027;48.576;9.180;2023-03-21T07:41:02;96971.59;;;8.19;100.00
11936;BME280;6027;48.576;9.180;2023-03-21T07:43:27;96963.56;;;8.37;100.00
11936;BME280;6027;48.576;9.180;2023-03-21T07:45:56;96964.69;;;8.51;100.00
11936;BME280;6027;48.576;9.180;2023-03-21T07:48:23;96957.44;;;8.53;100.00
11936;BME280;6027;48.576;9.180;2023-03-21T07:50:48;96962.72;;;8.61;100.00
11936;BME280;6027;48.576;9.180;2023-03-21T07:53:14;96955.13;;;8.50;100.00
11936;BME280;6027;48.576;9.180;2023-03-21T07:55:39;96962.00;;;8.75;100.00
11936;BME280;6027;48.576;9.180;2023-03-21T07:58:05;96951.69;;;9.05;100.00
11936;BME280;6027;48.576;9.180;2023-03-21T08:00:31;96961.50;;;9.27;100.00
11936;BME280;6027;48.576;9.180;2023-03-21T08:02:57;96960.25;;;9.46;100.00
11936;BME280;6027;48.576;9.180;2023-03-21T08:05:36;96959.38;;;9.61;100.00
11936;BME280;6027;48.576;9.180;2023-03-21T08:08:04;96961.97;;;9.92;100.00
11936;BME280;6027;48.576;9.180;2023-03-21T08:12:57;96958.47;;;10.23;94.71
11936;BME280;6027;48.576;9.180;2023-03-21T08:15:23;96955.78;;;10.46;95.03
11936;BME280;6027;48.576;9.180;2023-03-21T08:17:48;96954.38;;;10.58;91.54
11936;BME280;6027;48.576;9.180;2023-03-21T08:20:19;96940.38;;;10.64;92.54
11936;BME280;6027;48.576;9.180;2023-03-21T08:22:46;96949.44;;;10.84;91.11
11936;BME280;6027;48.576;9.180;2023-03-21T08:25:12;96942.44;;;10.91;89.58
11936;BME280;6027;48.576;9.180;2023-03-21T08:27:40;96928.66;;;10.96;89.27
11936;BME280;6027;48.576;9.180;2023-03-21T08:30:07;96932.34;;;11.16;87.10
11936;BME280;6027;48.576;9.180;2023-03-21T08:32:33;96936.75;;;11.24;86.27
11936;BME280;6027;48.576;9.180;2023-03-21T08:35:00;96926.50;;;11.21;84.85
11936;BME280;6027;48.576;9.180;2023-03-21T08:37:26;96935.66;;;11.33;85.58
11936;BME280;6027;48.576;9.180;2023-03-21T08:39:53;96930.59;;;11.38;84.24
11936;BME280;6027;48.576;9.180;2023-03-21T08:42:19;96928.47;;;11.48;84.93
11936;BME280;6027;48.576;9.180;2023-03-21T08:44:45;96934.28;;;11.58;83.98
11936;BME280;6027;48.576;9.180;2023-03-21T08:47:11;96929.69;;;11.82;80.69
11936;BME280;6027;48.576;9.180;2023-03-21T08:49:37;96932.28;;;11.96;80.51
11936;BME280;6027;48.576;9.180;2023-03-21T08:52:02;96926.22;;;12.24;79.51
11936;BME280;6027;48.576;9.180;2023-03-21T08:54:28;96922.97;;;12.50;79.12
11936;BME280;6027;48.576;9.180;2023-03-21T08:56:53;96923.91;;;12.70;78.72
11936;BME280;6027;48.576;9.180;2023-03-21T08:59:19;96923.94;;;12.76;68.34
11936;BME280;6027;48.576;9.180;2023-03-21T09:01:45;96923.31;;;12.74;68.96
11936;BME280;6027;48.576;9.180;2023-03-21T09:04:11;96924.34;;;12.73;72.15
11936;BME280;6027;48.576;9.180;2023-03-21T09:06:38;96913.63;;;12.88;68.97
11936;BME280;6027;48.576;9.180;2023-03-21T09:09:05;96917.78;;;13.04;65.99
11936;BME280;6027;48.576;9.180;2023-03-21T09:11:32;96922.91;;;13.05;66.74
11936;BME280;6027;48.576;9.180;2023-03-21T09:13:59;96918.13;;;12.94;66.76
11936;BME280;6027;48.576;9.180;2023-03-21T09:16:26;96917.50;;;12.92;67.83
11936;BME280;6027;48.576;9.180;2023-03-21T09:18:52;96913.81;;;12.93;65.95
11936;BME280;6027;48.576;9.180;2023-03-21T09:21:20;96926.28;;;13.21;66.97
11936;BME280;6027;48.576;9.180;2023-03-21T09:23:47;96918.19;;;13.42;65.52
11936;BME280;6027;48.576;9.180;2023-03-21T09:26:18;96917.97;;;13.37;63.50
11936;BME280;6027;48.576;9.180;2023-03-21T09:28:44;96919.44;;;13.46;62.55
11936;BME280;6027;48.576;9.180;2023-03-21T09:31:12;96926.84;;;13.57;63.70
11936;BME280;6027;48.576;9.180;2023-03-21T09:33:41;96915.75;;;13.47;63.70
11936;BME280;6027;48.576;9.180;2023-03-21T09:36:10;96918.13;;;13.29;61.30
11936;BME280;6027;48.576;9.180;2023-03-21T09:38:42;96917.72;;;13.32;60.72
11936;BME280;6027;48.576;9.180;2023-03-21T09:41:28;96916.84;;;13.18;61.25
11936;BME280;6027;48.576;9.180;2023-03-21T09:44:24;96909.94;;;13.30;62.25
11936;BME280;6027;48.576;9.180;2023-03-21T09:47:07;96906.75;;;13.48;62.65
11936;BME280;6027;48.576;9.180;2023-03-21T09:49:40;96909.03;;;13.58;63.00
11936;BME280;6027;48.576;9.180;2023-03-21T09:52:19;96907.72;;;13.34;61.43
11936;BME280;6027;48.576;9.180;2023-03-21T09:54:46;96900.59;;;13.41;62.58
11936;BME280;6027;48.576;9.180;2023-03-21T09:59:46;96906.34;;;13.51;59.40
11936;BME280;6027;48.576;9.180;2023-03-21T10:02:41;96893.25;;;13.49;59.99
11936;BME280;6027;48.576;9.180;2023-03-21T10:05:30;96891.25;;;13.58;64.25
11936;BME280;6027;48.576;9.180;2023-03-21T10:08:07;96896.91;;;13.42;60.48
11936;BME280;6027;48.576;9.180;2023-03-21T10:10:45;96889.16;;;13.54;59.72
11936;BME280;6027;48.576;9.180;2023-03-21T10:13:25;96881.84;;;13.62;59.90
11936;BME280;6027;48.576;9.180;2023-03-21T10:15:56;96879.84;;;13.84;63.09
11936;BME280;6027;48.576;9.180;2023-03-21T10:18:26;96876.94;;;13.86;59.80
11936;BME280;6027;48.576;9.180;2023-03-21T10:20:52;96877.56;;;13.88;60.76
11936;BME280;6027;48.576;9.180;2023-03-21T10:23:19;96870.22;;;14.09;59.18
11936;BME280;6027;48.576;9.180;2023-03-21T10:25:54;96861.44;;;14.22;60.22
11936;BME280;6027;48.576;9.180;2023-03-21T10:28:34;96867.78;;;14.14;58.87
11936;BME280;6027;48.576;9.180;2023-03-21T10:31:04;96867.78;;;14.21;60.88
11936;BME280;6027;48.576;9.180;2023-03-21T10:33:43;96862.25;;;14.23;58.88
11936;BME280;6027;48.576;9.180;2023-03-21T10:36:16;96869.84;;;14.19;58.92
11936;BME280;6027;48.576;9.180;2023-03-21T10:38:47;96857.53;;;14.31;57.31
11936;BME280;6027;48.576;9.180;2023-03-21T10:41:13;96862.25;;;14.29;58.82
11936;BME280;6027;48.576;9.180;2023-03-21T10:43:40;96858.13;;;14.27;59.82
11936;BME280;6027;48.576;9.180;2023-03-21T10:46:17;96856.28;;;14.27;59.82
11936;BME280;6027;48.576;9.180;2023-03-21T10:48:50;96851.38;;;14.37;59.12
11936;BME280;6027;48.576;9.180;2023-03-21T10:51:19;96861.84;;;14.39;58.78
11936;BME280;6027;48.576;9.180;2023-03-21T10:53:50;96863.88;;;14.43;57.20
11936;BME280;6027;48.576;9.180;2023-03-21T10:56:22;96863.88;;;14.43;57.64
11936;BME280;6027;48.576;9.180;2023-03-21T10:58:50;96864.69;;;14.37;57.73
11936;BME280;6027;48.576;9.180;2023-03-21T11:01:25;96858.13;;;14.27;58.75
11936;BME280;6027;48.576;9.180;2023-03-21T11:04:15;96862.84;;;14.25;58.87
11936;BME280;6027;48.576;9.180;2023-03-21T11:06:44;96862.03;;;14.37;58.91
11936;BME280;6027;48.576;9.180;2023-03-21T11:09:17;96859.16;;;14.32;57.39
11936;BME280;6027;48.576;9.180;2023-03-21T11:11:54;96855.09;;;14.43;59.22
11936;BME280;6027;48.576;9.180;2023-03-21T11:14:37;96860.19;;;14.31;57.92
11936;BME280;6027;48.576;9.180;2023-03-21T11:19:53;96848.91;;;14.29;59.79
11936;BME280;6027;48.576;9.180;2023-03-21T11:22:23;96840.13;;;14.35;60.06
11936;BME280;6027;48.576;9.180;2023-03-21T11:24:57;96841.56;;;14.38;59.10
11936;BME280;6027;48.576;9.180;2023-03-21T11:27:26;96838.69;;;14.39;59.96
11936;BME280;6027;48.576;9.180;2023-03-21T11:29:54;96839.91;;;14.43;61.97
11936;BME280;6027;48.576;9.180;2023-03-21T11:32:24;96841.97;;;14.48;59.27
11936;BME280;6027;48.576;9.180;2023-03-21T11:34:57;96850.16;;;14.46;59.62
11936;BME280;6027;48.576;9.180;2023-03-21T11:45:24;96836.66;;;14.41;61.33
11936;BME280;6027;48.576;9.180;2023-03-21T11:47:52;96831.72;;;14.51;59.97
11936;BME280;6027;48.576;9.180;2023-03-21T11:50:37;96826.81;;;14.48;60.92
11936;BME280;6027;48.576;9.180;2023-03-21T11:53:22;96821.28;;;14.43;60.18
11936;BME280;6027;48.576;9.180;2023-03-21T11:58:32;96812.69;;;14.41;60.93
11936;BME280;6027;48.576;9.180;2023-03-21T12:06:52;96801.59;;;14.51;60.68
11936;BME280;6027;48.576;9.180;2023-03-21T12:12:16;96792.56;;;14.59;61.19
11936;BME280;6027;48.576;9.180;2023-03-21T12:20:25;96782.75;;;14.46;59.56
11936;BME280;6027;48.576;9.180;2023-03-21T12:25:38;96774.47;;;14.74;60.58
11936;BME280;6027;48.576;9.180;2023-03-21T12:31:16;96774.06;;;14.70;62.05
11936;BME280;6027;48.576;9.180;2023-03-21T12:39:29;96761.38;;;14.72;61.15
11936;BME280;6027;48.576;9.180;2023-03-21T12:42:06;96759.31;;;14.74;62.24
11936;BME280;6027;48.576;9.180;2023-03-21T12:44:38;96761.63;;;14.58;59.68
11936;BME280;6027;48.576;9.180;2023-03-21T12:47:10;96753.75;;;14.76;59.91
11936;BME280;6027;48.576;9.180;2023-03-21T12:49:41;96757.25;;;14.76;59.62
11936;BME280;6027;48.576;9.180;2023-03-21T12:52:32;96756.84;;;14.79;60.12
11936;BME280;6027;48.576;9.180;2023-03-21T12:57:52;96749.66;;;14.80;59.55
11936;BME280;6027;48.576;9.180;2023-03-21T13:00:22;96759.72;;;14.78;58.13
11936;BME280;6027;48.576;9.180;2023-03-21T13:05:39;96743.66;;;14.91;58.34
11936;BME280;6027;48.576;9.180;2023-03-21T13:08:16;96751.56;;;15.04;58.00
11936;BME280;6027;48.576;9.180;2023-03-21T13:10:44;96744.19;;;15.06;57.30
11936;BME280;6027;48.576;9.180;2023-03-21T13:13:33;96746.78;;;15.19;55.90
11936;BME280;6027;48.576;9.180;2023-03-21T13:16:08;96743.66;;;15.23;55.28
11936;BME280;6027;48.576;9.180;2023-03-21T13:27:02;96729.97;;;15.50;53.04
11936;BME280;6027;48.576;9.180;2023-03-21T13:34:57;96716.53;;;15.64;52.17
11936;BME280;6027;48.576;9.180;2023-03-21T13:37:29;96722.25;;;15.67;51.94
11936;BME280;6027;48.576;9.180;2023-03-21T13:40:04;96714.50;;;15.59;52.41
11936;BME280;6027;48.576;9.180;2023-03-21T13:42:44;96711.78;;;15.66;54.06
11936;BME280;6027;48.576;9.180;2023-03-21T13:45:32;96710.97;;;15.65;52.44
11936;BME280;6027;48.576;9.180;2023-03-21T13:48:02;96703.66;;;15.54;50.49
11936;BME280;6027;48.576;9.180;2023-03-21T13:50:33;96706.75;;;15.58;51.03
11936;BME280;6027;48.576;9.180;2023-03-21T13:55:30;96706.69;;;15.64;50.29
11936;BME280;6027;48.576;9.180;2023-03-21T14:01:26;96701.34;;;15.64;49.14
11936;BME280;6027;48.576;9.180;2023-03-21T14:06:42;96697.28;;;15.55;50.83
11936;BME280;6027;48.576;9.180;2023-03-21T14:09:16;96701.22;;;15.52;50.34
11936;BME280;6027;48.576;9.180;2023-03-21T14:11:44;96696.91;;;15.58;48.68
11936;BME280;6027;48.576;9.180;2023-03-21T14:14:13;96699.16;;;15.54;50.40
11936;BME280;6027;48.576;9.180;2023-03-21T14:16:39;96697.47;;;15.60;49.22
11936;BME280;6027;48.576;9.180;2023-03-21T14:19:05;96686.97;;;15.65;48.22
11936;BME280;6027;48.576;9.180;2023-03-21T14:21:33;96690.22;;;15.67;49.79
11936;BME280;6027;48.576;9.180;2023-03-21T14:24:11;96687.56;;;15.67;48.51
11936;BME280;6027;48.576;9.180;2023-03-21T14:26:41;96681.63;;;15.65;47.59
11936;BME280;6027;48.576;9.180;2023-03-21T14:29:10;96674.44;;;15.66;45.84
11936;BME280;6027;48.576;9.180;2023-03-21T14:31:37;96671.13;;;15.70;43.54
11936;BME280;6027;48.576;9.180;2023-03-21T14:34:05;96671.34;;;15.69;46.08
11936;BME280;6027;48.576;9.180;2023-03-21T14:36:32;96673.91;;;15.57;45.42
11936;BME280;6027;48.576;9.180;2023-03-21T14:39:11;96668.50;;;15.64;46.02
11936;BME280;6027;48.576;9.180;2023-03-21T14:41:55;96673.63;;;15.65;46.18
11936;BME280;6027;48.576;9.180;2023-03-21T14:44:32;96668.72;;;15.62;45.65
11936;BME280;6027;48.576;9.180;2023-03-21T14:47:06;96667.34;;;15.53;45.12
11936;BME280;6027;48.576;9.180;2023-03-21T14:49:36;96665.59;;;15.65;45.48
11936;BME280;6027;48.576;9.180;2023-03-21T14:52:15;96655.16;;;15.64;44.60
11936;BME280;6027;48.576;9.180;2023-03-21T14:54:44;96655.38;;;15.62;44.15
11936;BME280;6027;48.576;9.180;2023-03-21T14:57:14;96649.81;;;15.64;44.57
11936;BME280;6027;48.576;9.180;2023-03-21T14:59:43;96655.38;;;15.62;44.17
11936;BME280;6027;48.576;9.180;2023-03-21T15:02:36;96656.34;;;15.68;45.01
11936;BME280;6027;48.576;9.180;2023-03-21T15:08:39;96658.72;;;15.58;44.75
11936;BME280;6027;48.576;9.180;2023-03-21T15:10:59;96655.81;;;15.59;44.10
11936;BME280;6027;48.576;9.180;2023-03-21T15:13:48;96652.09;;;15.60;46.38
11936;BME280;6027;48.576;9.180;2023-03-21T15:16:17;96643.66;;;15.63;44.54